Time;durP1;ratioP1;P1;durP2;ratioP2;P2;SDS_P1;SDS_P2;PMS_P1;PMS_P2;Temp;Humidity;BMP_temperature;BMP_pressure;BME280_temperature;BME280_humidity;BME280_pressure;Samples;Min_cycle;Max_cycle;Signal;HPM_P1;HPM_P2
2022/03/31 00:00:36;;;;;;;7.17;4.07;;;;;;;2.01;67.77;99867.69;4978581;28;20038;-78
2022/03/31 00:03:04;;;;;;;;;;;;;;;1.83;68.13;99862.47;4979645;28;20455;-78
2022/03/31 00:05:32;;;;;;;5.10;3.67;;;;;;;1.86;68.37;99867.69;4988069;28;19921;-77
2022/03/31 00:08:01;;;;;;;7.47;3.47;;;;;;;1.83;68.23;99859.84;4987729;28;20513;-78
2022/03/31 00:10:34;;;;;;;5.50;3.87;;;;;;;1.62;69.26;99861.56;4993896;28;20399;-77
2022/03/31 00:13:04;;;;;;;6.10;4.13;;;;;;;1.66;69.71;99865.91;5033261;23;20042;-80
2022/03/31 00:15:31;;;;;;;6.20;3.60;;;;;;;1.63;69.76;99862.44;4980870;28;20434;-80
2022/03/31 00:17:59;;;;;;;7.47;4.77;;;;;;;1.78;67.57;99869.41;4999788;28;20053;-80
2022/03/31 00:20:26;;;;;;;7.67;3.87;;;;;;;1.70;68.17;99866.78;4996447;28;20045;-79
2022/03/31 00:22:53;;;;;;;8.60;3.80;;;;;;;1.62;69.33;99864.16;4985799;28;20498;-79
2022/03/31 00:25:20;;;;;;;5.80;3.53;;;;;;;1.53;69.53;99864.13;4978896;28;20463;-79
2022/03/31 00:27:47;;;;;;;7.10;3.83;;;;;;;1.49;68.32;99861.50;4986264;28;20041;-79
2022/03/31 00:30:14;;;;;;;7.23;4.27;;;;;;;1.47;68.88;99866.72;5005549;28;20045;-78
2022/03/31 00:32:41;;;;;;;6.77;3.67;;;;;;;1.38;69.16;99862.34;5000288;28;20056;-79
2022/03/31 00:35:10;;;;;;;5.60;3.40;;;;;;;1.31;69.29;99865.78;5011949;28;20049;-80
2022/03/31 00:37:37;;;;;;;6.40;3.40;;;;;;;1.30;69.33;99864.03;4994139;28;20033;-79
2022/03/31 00:40:04;;;;;;;6.60;3.67;;;;;;;1.27;69.68;99858.84;4994610;28;20076;-80
2022/03/31 00:42:31;;;;;;;7.60;3.70;;;;;;;1.31;69.00;99862.31;4981906;28;20056;-79
2022/03/31 00:44:58;;;;;;;5.90;3.73;;;;;;;1.17;69.71;99871.78;5007510;28;20517;-79
2022/03/31 00:47:24;;;;;;;7.07;3.60;;;;;;;1.35;69.05;99864.06;5002274;28;20041;-80
2022/03/31 00:49:51;;;;;;;4.83;3.30;;;;;;;1.27;69.75;99868.38;5002421;28;20042;-80
2022/03/31 00:52:18;;;;;;;5.30;3.20;;;;;;;1.26;68.39;99866.63;5019655;28;20414;-79
2022/03/31 00:54:44;;;;;;;5.23;3.70;;;;;;;1.24;69.17;99877.03;5014758;28;20061;-79
2022/03/31 00:57:11;;;;;;;6.40;3.43;;;;;;;1.33;68.99;99871.84;4984939;28;20073;-79
2022/03/31 00:59:38;;;;;;;6.60;3.13;;;;;;;1.21;69.89;99877.00;4983097;28;20052;-80
2022/03/31 01:02:05;;;;;;;5.83;3.90;;;;;;;1.23;68.59;99867.47;4984369;28;20045;-79
2022/03/31 01:04:34;;;;;;;4.93;3.57;;;;;;;1.19;68.95;99865.75;4998386;28;20080;-80
2022/03/31 01:07:01;;;;;;;6.93;3.80;;;;;;;1.05;69.13;99857.84;4999102;28;20474;-81
2022/03/31 01:09:28;;;;;;;7.07;3.97;;;;;;;1.04;69.45;99858.72;4981840;28;20041;-79
2022/03/31 01:11:54;;;;;;;7.53;3.60;;;;;;;1.00;69.53;99850.88;4997606;28;20471;-80
2022/03/31 01:14:21;;;;;;;6.17;3.87;;;;;;;0.96;70.51;99854.34;5006916;28;20116;-79
2022/03/31 01:16:48;;;;;;;7.67;3.17;;;;;;;0.89;69.07;99858.63;4997672;28;20485;-79
2022/03/31 01:19:15;;;;;;;5.07;3.50;;;;;;;0.88;70.21;99862.09;4995308;28;20466;-81
2022/03/31 01:21:45;;;;;;;5.40;3.10;;;;;;;0.83;69.68;99859.47;4996523;28;20033;-80
2022/03/31 01:24:15;;;;;;;4.87;3.07;;;;;;;0.81;69.97;99866.38;4995965;28;20524;-80
2022/03/31 01:26:42;;;;;;;5.97;3.17;;;;;;;0.77;70.12;99864.66;4997916;28;20041;-80
2022/03/31 01:29:10;;;;;;;7.37;3.23;;;;;;;0.70;70.24;99862.88;4991912;28;20657;-80
2022/03/31 01:31:40;;;;;;;5.10;3.30;;;;;;;0.64;70.39;99870.59;4992970;28;20042;-79
2022/03/31 01:34:07;;;;;;;6.00;3.20;;;;;;;0.56;71.80;99865.34;4976736;28;20038;-79
2022/03/31 01:36:35;;;;;;;5.37;3.40;;;;;;;0.47;70.62;99873.09;4985645;28;20049;-79
2022/03/31 01:39:03;;;;;;;6.70;3.40;;;;;;;0.47;69.89;99870.50;4986199;28;20125;-80
2022/03/31 01:41:30;;;;;;;5.47;2.77;;;;;;;0.34;70.67;99867.78;5003233;28;20042;-80
2022/03/31 01:43:57;;;;;;;7.43;3.13;;;;;;;0.47;70.17;99875.69;4995119;28;20041;-80
2022/03/31 01:46:23;;;;;;;4.43;2.83;;;;;;;0.39;69.35;99871.28;5006857;28;20034;-80
2022/03/31 01:48:52;;;;;;;5.00;2.97;;;;;;;0.20;70.22;99878.94;4993050;28;20041;-80
2022/03/31 01:51:19;;;;;;;5.90;3.50;;;;;;;0.20;69.91;99872.88;5010128;28;20045;-80
2022/03/31 01:53:47;;;;;;;4.30;2.70;;;;;;;0.31;69.79;99870.34;4989403;28;20046;-81
2022/03/31 01:56:14;;;;;;;5.30;3.27;;;;;;;0.20;70.54;99873.75;4998029;28;20046;-81
2022/03/31 01:58:40;;;;;;;7.10;2.87;;;;;;;0.27;69.32;99872.94;4975811;28;20049;-80
2022/03/31 02:01:07;;;;;;;8.80;2.97;;;;;;;0.23;69.33;99872.88;5009372;28;20044;-81
2022/03/31 02:03:34;;;;;;;5.10;2.87;;;;;;;0.16;69.57;99874.56;4999263;28;20045;-80
2022/03/31 02:06:01;;;;;;;5.30;2.90;;;;;;;0.22;68.95;99878.94;4984990;28;20045;-79
2022/03/31 02:08:27;;;;;;;8.87;3.10;;;;;;;0.19;68.94;99871.13;4999354;28;20033;-79
2022/03/31 02:10:54;;;;;;;3.93;2.50;;;;;;;0.03;69.83;99869.25;5016906;28;20041;-81
2022/03/31 02:13:21;;;;;;;5.77;2.97;;;;;;;0.14;69.08;99865.88;5007601;28;20111;-81
2022/03/31 02:15:47;;;;;;;4.47;2.50;;;;;;;0.05;68.46;99868.41;5031360;28;20045;-80
2022/03/31 02:18:14;;;;;;;5.37;2.50;;;;;;;0.15;68.24;99861.56;5014895;28;20502;-80
2022/03/31 02:20:41;;;;;;;3.67;2.67;;;;;;;0.15;67.40;99867.63;5034300;28;20069;-81
2022/03/31 02:23:08;;;;;;;4.93;2.57;;;;;;;-0.03;67.99;99870.94;5002788;28;20045;-80
2022/03/31 02:25:35;;;;;;;5.27;2.37;;;;;;;0.01;68.70;99873.56;4985830;28;20042;-79
2022/03/31 02:28:02;;;;;;;3.50;2.50;;;;;;;0.02;68.49;99872.72;4994946;28;20452;-79
2022/03/31 02:30:29;;;;;;;4.13;2.60;;;;;;;0.06;66.46;99871.88;5019849;28;20049;-80
2022/03/31 02:32:56;;;;;;;4.93;2.97;;;;;;;-0.01;67.09;99874.41;4988569;28;20045;-80
2022/03/31 02:35:23;;;;;;;4.17;2.30;;;;;;;-0.10;68.39;99879.50;4997664;28;20121;-81
2022/03/31 02:37:50;;;;;;;4.67;2.63;;;;;;;-0.06;67.67;99875.22;5038887;28;20100;-81
2022/03/31 02:40:17;;;;;;;4.37;2.37;;;;;;;-0.11;67.59;99871.72;5003618;28;20053;-82
2022/03/31 02:42:43;;;;;;;5.00;3.03;;;;;;;-0.15;67.95;99881.22;5008544;28;20042;-81
2022/03/31 02:45:10;;;;;;;5.37;2.67;;;;;;;-0.15;67.53;99880.34;4998590;28;20037;-81
2022/03/31 02:47:37;;;;;;;5.27;2.40;;;;;;;-0.30;66.87;99878.44;4998702;28;20052;-80
2022/03/31 02:50:04;;;;;;;3.60;2.20;;;;;;;-0.36;68.03;99874.06;5005611;28;20052;-80
2022/03/31 02:55:24;;;;;;;3.63;2.20;;;;;;;-0.34;67.58;99884.44;5002063;28;20696;-81
2022/03/31 02:55:30;;;;;;;4.07;2.20;;;;;;;-0.54;68.25;99880.75;5008306;28;20049;-81
2022/03/31 02:58:00;;;;;;;5.60;2.73;;;;;;;-0.68;68.57;99881.47;5006913;28;20098;-81
2022/03/31 03:00:32;;;;;;;3.73;2.40;;;;;;;-0.68;68.53;99885.78;5003116;28;20037;-80
2022/03/31 03:03:03;;;;;;;3.47;2.00;;;;;;;-0.82;69.04;99888.22;4990289;28;20049;-81
2022/03/31 03:05:31;;;;;;;4.43;2.50;;;;;;;-0.84;69.88;99887.34;5000943;28;20033;-82
2022/03/31 03:07:57;;;;;;;6.80;2.57;;;;;;;-0.76;69.31;99890.00;4989581;28;20053;-79
2022/03/31 03:10:24;;;;;;;5.00;2.30;;;;;;;-0.92;69.61;99883.75;4990289;28;20097;-81
2022/03/31 03:12:51;;;;;;;3.20;2.23;;;;;;;-0.83;69.58;99885.59;5012385;28;20057;-81
2022/03/31 03:15:18;;;;;;;4.77;2.87;;;;;;;-0.97;69.78;99888.88;5000340;28;20446;-80
2022/03/31 03:17:46;;;;;;;5.97;2.70;;;;;;;-0.98;69.83;99886.28;5000115;28;20042;-80
2022/03/31 03:20:14;;;;;;;3.70;1.90;;;;;;;-1.06;70.71;99886.16;5014994;28;20443;-79
2022/03/31 03:22:48;;;;;;;4.20;2.50;;;;;;;-1.09;70.78;99887.81;4985020;28;20564;-81
2022/03/31 03:25:18;;;;;;;4.28;2.38;;;;;;;-1.26;71.07;99885.88;4995977;28;20108;-80
2022/03/31 03:27:47;;;;;;;5.13;2.27;;;;;;;-1.21;70.91;99889.41;5011222;28;20053;-81
2022/03/31 03:30:15;;;;;;;5.10;2.47;;;;;;;-1.27;71.08;99888.44;4991250;28;20061;-80
2022/03/31 03:32:42;;;;;;;4.63;2.40;;;;;;;-1.26;71.89;99890.16;4989980;28;20046;-81
2022/03/31 03:35:10;;;;;;;3.80;2.60;;;;;;;-1.28;70.45;99889.28;5013076;28;20042;-80
2022/03/31 03:37:38;;;;;;;4.30;2.30;;;;;;;-1.28;71.27;99887.56;4999651;28;20048;-80
2022/03/31 03:40:06;;;;;;;4.00;2.67;;;;;;;-1.28;71.55;99884.09;5016551;28;20052;-79
2022/03/31 03:42:32;;;;;;;3.93;2.47;;;;;;;-1.30;71.41;99883.22;4995403;28;20057;-80
2022/03/31 03:44:59;;;;;;;5.43;2.90;;;;;;;-1.46;71.92;99888.16;5000933;28;20049;-80
2022/03/31 03:47:27;;;;;;;4.50;2.00;;;;;;;-1.32;71.43;99885.78;5019490;28;20037;-81
2022/03/31 03:49:59;;;;;;;5.53;3.40;;;;;;;-1.46;71.95;99890.75;5001467;28;20119;-80
2022/03/31 03:52:26;;;;;;;5.30;2.20;;;;;;;-1.37;71.65;99883.97;5019889;28;20048;-80
2022/03/31 03:54:52;;;;;;;4.90;2.90;;;;;;;-1.44;71.40;99888.19;4996827;28;20053;-80
2022/03/31 03:57:19;;;;;;;4.43;2.53;;;;;;;-1.46;71.75;99892.47;4995698;28;20562;-80
2022/03/31 03:59:46;;;;;;;5.47;2.23;;;;;;;-1.53;72.19;99886.31;4985026;28;20049;-80
2022/03/31 04:02:13;;;;;;;4.97;2.37;;;;;;;-1.63;72.14;99889.63;4992457;28;20124;-80
2022/03/31 04:04:40;;;;;;;4.97;2.40;;;;;;;-1.75;73.04;99890.31;4986292;28;20045;-80
2022/03/31 04:07:06;;;;;;;4.90;2.30;;;;;;;-1.61;73.51;99892.22;4998893;28;20083;-81
2022/03/31 04:09:33;;;;;;;4.73;2.23;;;;;;;-1.72;73.23;99887.75;5016150;28;20045;-80
2022/03/31 04:12:00;;;;;;;4.27;2.57;;;;;;;-1.67;73.26;99882.66;5000136;28;20041;-80
2022/03/31 04:14:26;;;;;;;4.27;2.97;;;;;;;-1.81;73.03;99882.41;4985257;28;20041;-80
2022/03/31 04:16:55;;;;;;;3.80;2.13;;;;;;;-1.81;73.56;99878.97;5002246;28;20049;-80
2022/03/31 04:19:22;;;;;;;3.97;2.20;;;;;;;-1.85;74.07;99883.22;5004289;28;20041;-80
2022/03/31 04:21:49;;;;;;;5.43;2.40;;;;;;;-1.92;73.35;99878.78;5002927;28;20088;-80
2022/03/31 04:24:16;;;;;;;3.93;2.20;;;;;;;-1.86;74.75;99886.63;4995300;28;20633;-81
2022/03/31 04:26:44;;;;;;;3.83;2.20;;;;;;;-1.87;74.18;99879.72;4979318;28;20053;-80
2022/03/31 04:29:11;;;;;;;6.17;2.07;;;;;;;-1.94;74.08;99882.19;4999380;28;20053;-81
2022/03/31 04:31:43;;;;;;;4.33;2.23;;;;;;;-1.98;74.41;99870.91;5001922;28;20593;-79
2022/03/31 04:34:11;;;;;;;3.40;2.33;;;;;;;-2.08;74.23;99882.81;5003142;28;20503;-80
2022/03/31 04:36:38;;;;;;;3.27;2.13;;;;;;;-2.01;74.83;99879.50;4988616;28;20053;-80
2022/03/31 04:39:05;;;;;;;4.23;2.50;;;;;;;-2.02;74.03;99890.72;4985149;28;20041;-80
2022/03/31 04:41:32;;;;;;;5.40;2.20;;;;;;;-2.04;74.60;99884.59;4988603;28;20042;-81
2022/03/31 04:43:58;;;;;;;5.03;2.17;;;;;;;-2.00;74.42;99873.47;4995873;28;20041;-81
2022/03/31 04:46:25;;;;;;;5.27;2.13;;;;;;;-2.07;74.11;99875.94;5013401;28;20037;-80
2022/03/31 04:48:52;;;;;;;4.27;2.83;;;;;;;-2.06;74.54;99882.84;4997031;28;20048;-81
2022/03/31 04:51:18;;;;;;;4.07;2.00;;;;;;;-2.13;74.94;99881.84;4997286;28;20482;-80
2022/03/31 04:53:45;;;;;;;4.07;2.50;;;;;;;-2.20;74.55;99879.13;4997271;28;20060;-79
2022/03/31 04:56:13;;;;;;;4.83;2.27;;;;;;;-2.16;74.89;99878.34;5004411;28;20041;-80
2022/03/31 04:58:40;;;;;;;3.73;1.90;;;;;;;-2.18;74.82;99886.09;4989524;28;20103;-81
2022/03/31 05:01:07;;;;;;;3.20;2.07;;;;;;;-2.19;75.76;99880.88;4990117;28;20046;-79
2022/03/31 05:03:33;;;;;;;3.30;2.30;;;;;;;-2.20;75.86;99881.72;5012884;28;20057;-80
2022/03/31 05:06:00;;;;;;;5.70;2.17;;;;;;;-2.27;76.53;99879.03;4996992;28;20044;-80
2022/03/31 05:08:27;;;;;;;5.10;2.07;;;;;;;-2.19;75.43;99886.91;4996230;28;20041;-80
2022/03/31 05:10:54;;;;;;;5.37;2.23;;;;;;;-2.14;75.38;99889.59;4989662;28;20042;-79
2022/03/31 05:13:20;;;;;;;3.63;2.20;;;;;;;-2.09;75.78;99882.81;5007544;28;20041;-80
2022/03/31 05:15:47;;;;;;;5.27;2.50;;;;;;;-2.19;75.57;99889.50;4995972;28;20045;-80
2022/03/31 05:18:14;;;;;;;3.63;2.00;;;;;;;-2.14;75.65;99885.28;4991518;28;20041;-80
2022/03/31 05:20:42;;;;;;;4.43;2.50;;;;;;;-2.15;76.04;99887.88;4991194;28;20490;-80
2022/03/31 05:23:12;;;;;;;4.60;2.10;;;;;;;-2.11;76.12;99892.22;5011926;28;20046;-80
2022/03/31 05:25:39;;;;;;;5.87;2.60;;;;;;;-2.13;76.50;99888.75;5011373;28;20045;-79
2022/03/31 05:28:06;;;;;;;5.00;2.27;;;;;;;-2.04;76.86;99891.50;5013295;28;20033;-80
2022/03/31 05:30:34;;;;;;;4.97;2.37;;;;;;;-2.00;76.69;99903.66;5010236;28;20042;-80
2022/03/31 05:33:01;;;;;;;4.87;2.43;;;;;;;-1.98;76.37;99901.97;5012389;28;20053;-79
2022/03/31 05:35:28;;;;;;;4.07;2.50;;;;;;;-1.95;75.13;99906.31;4972975;28;20124;-80
2022/03/31 05:37:55;;;;;;;4.57;2.20;;;;;;;-1.94;75.43;99897.72;5020094;28;20037;-80
2022/03/31 05:40:22;;;;;;;4.27;2.40;;;;;;;-1.97;75.84;99903.72;4988033;28;20041;-79
2022/03/31 05:42:49;;;;;;;4.50;2.30;;;;;;;-2.00;76.00;99903.66;5017090;28;20042;-80
2022/03/31 05:45:16;;;;;;;3.17;2.30;;;;;;;-1.95;75.78;99902.00;4988851;28;20414;-80
2022/03/31 05:47:44;;;;;;;5.40;2.80;;;;;;;-1.94;75.71;99892.53;5007497;28;20041;-79
2022/03/31 05:50:12;;;;;;;4.73;2.67;;;;;;;-1.89;76.32;99896.94;4984367;28;20045;-79
2022/03/31 05:52:38;;;;;;;3.43;2.00;;;;;;;-1.75;75.93;99899.78;5000587;28;20092;-79
2022/03/31 05:55:06;;;;;;;4.80;2.30;;;;;;;-1.65;74.62;99903.41;5000821;28;20408;-80
2022/03/31 05:57:34;;;;;;;5.37;2.30;;;;;;;-1.60;74.64;99912.09;5036389;28;20053;-80
2022/03/31 06:00:04;;;;;;;8.53;2.40;;;;;;;-1.52;74.49;99918.28;4984719;28;20064;-79
2022/03/31 06:02:31;;;;;;;4.07;2.30;;;;;;;-1.53;74.26;99911.34;4997202;28;20045;-81
2022/03/31 06:05:15;;;;;;;4.80;2.35;;;;;;;-1.54;74.72;99909.63;5003323;28;20453;-79
2022/03/31 06:07:41;;;;;;;3.57;2.03;;;;;;;-1.36;73.61;99915.06;5018355;28;20042;-79
2022/03/31 06:10:09;;;;;;;3.03;1.93;;;;;;;-1.30;74.21;99915.19;5000092;28;20049;-78
2022/03/31 06:12:36;;;;;;;3.53;2.33;;;;;;;-1.20;72.93;99911.88;4994737;28;20038;-79
2022/03/31 06:15:03;;;;;;;2.90;1.73;;;;;;;-1.22;73.41;99908.41;5000767;28;20045;-79
2022/03/31 06:17:30;;;;;;;3.57;2.07;;;;;;;-1.00;72.83;99917.38;4997232;28;20044;-79
2022/03/31 06:19:57;;;;;;;5.37;3.07;;;;;;;-0.95;71.14;99896.66;4993004;28;20037;-80
2022/03/31 06:22:23;;;;;;;4.73;2.43;;;;;;;-0.87;70.97;99910.59;4996222;28;20042;-80
2022/03/31 06:24:50;;;;;;;5.67;2.33;;;;;;;-0.85;70.87;99912.38;5002788;28;20049;-79
2022/03/31 06:27:17;;;;;;;4.77;2.10;;;;;;;-0.81;69.15;99905.50;5001404;28;20045;-82
2022/03/31 06:29:45;;;;;;;3.73;1.90;;;;;;;-0.72;69.24;99910.81;4988875;28;20402;-80
2022/03/31 06:32:13;;;;;;;4.70;2.07;;;;;;;-0.51;68.96;99920.56;5016698;28;20049;-82
2022/03/31 06:34:41;;;;;;;5.07;2.40;;;;;;;-0.45;67.74;99918.06;4979635;28;20034;-80
2022/03/31 06:37:08;;;;;;;6.50;2.67;;;;;;;-0.81;66.76;99912.41;5017137;28;20056;-81
2022/03/31 06:39:41;;;;;;;3.22;2.00;;;;;;;-0.67;67.65;99916.06;5009662;28;20072;-81
2022/03/31 06:42:08;;;;;;;3.60;2.30;;;;;;;-0.54;66.84;99919.69;4983572;28;20038;-82
2022/03/31 06:44:35;;;;;;;4.33;2.60;;;;;;;-0.40;65.49;99915.53;4994315;28;20513;-80
2022/03/31 06:47:02;;;;;;;4.07;2.20;;;;;;;-0.24;65.56;99921.78;5001143;28;20041;-82
2022/03/31 06:49:29;;;;;;;5.23;2.50;;;;;;;0.22;65.16;99917.91;4997514;28;20072;-79
2022/03/31 06:51:55;;;;;;;2.80;1.80;;;;;;;0.83;63.37;99919.25;5003198;28;20037;-81
2022/03/31 06:54:22;;;;;;;3.90;2.17;;;;;;;1.20;60.89;99910.84;4999446;28;20053;-82
2022/03/31 06:56:49;;;;;;;2.73;1.87;;;;;;;1.47;60.21;99923.09;5004059;28;20717;-80
2022/03/31 06:59:16;;;;;;;4.93;2.00;;;;;;;1.57;57.95;99928.34;4982317;28;20116;-82
2022/03/31 07:01:43;;;;;;;3.47;2.00;;;;;;;2.06;59.38;99928.50;4999770;28;20101;-81
2022/03/31 07:04:10;;;;;;;3.40;2.33;;;;;;;2.53;56.87;99928.59;4976844;28;20125;-82
2022/03/31 07:06:37;;;;;;;3.83;2.43;;;;;;;1.91;56.50;99912.84;5017354;28;20092;-80
2022/03/31 07:09:04;;;;;;;3.37;2.20;;;;;;;1.99;55.67;99926.75;4984946;28;20065;-80
2022/03/31 07:11:31;;;;;;;7.37;2.60;;;;;;;2.38;55.78;99918.13;5015354;28;20053;-78
2022/03/31 07:14:05;;;;;;;3.47;2.00;;;;;;;2.50;54.24;99914.66;5015329;28;20133;-81
2022/03/31 07:16:32;;;;;;;3.23;2.00;;;;;;;2.88;54.30;99932.91;5094080;23;20075;-74
2022/03/31 07:19:01;;;;;;;4.87;2.10;;;;;;;2.87;54.19;99925.09;5027480;28;20064;-74
2022/03/31 07:21:32;;;;;;;3.60;2.20;;;;;;;2.89;53.71;99925.94;5042574;28;20090;-74
2022/03/31 07:24:00;;;;;;;4.13;2.33;;;;;;;2.55;54.65;99928.56;5012331;28;20045;-74
2022/03/31 07:26:28;;;;;;;3.30;2.20;;;;;;;2.19;54.92;99925.06;5019550;28;20494;-77
2022/03/31 07:28:55;;;;;;;3.37;2.17;;;;;;;1.88;55.65;99916.31;5014361;28;20497;-75
2022/03/31 07:31:24;;;;;;;20.37;4.17;;;;;;;2.01;56.14;99919.81;5001249;28;20069;-75
2022/03/31 07:33:50;;;;;;;4.77;2.20;;;;;;;2.11;53.62;99929.41;5032931;28;20041;-76
2022/03/31 07:36:18;;;;;;;4.27;2.20;;;;;;;1.89;54.12;99914.56;5017008;28;20045;-75
2022/03/31 07:38:48;;;;;;;5.53;2.10;;;;;;;1.78;54.88;99931.91;5022190;28;20056;-74
2022/03/31 07:41:15;;;;;;;4.47;1.87;;;;;;;1.75;54.84;99927.53;5021434;28;20044;-74
2022/03/31 07:43:42;;;;;;;3.43;2.00;;;;;;;1.30;54.15;99928.22;5034424;28;20029;-75
2022/03/31 07:46:09;;;;;;;3.33;2.20;;;;;;;1.26;55.26;99923.84;5024759;28;20041;-74
2022/03/31 07:48:36;;;;;;;6.83;2.10;;;;;;;1.34;55.00;99923.03;5017017;28;20095;-76
2022/03/31 07:51:03;;;;;;;3.43;2.20;;;;;;;1.59;54.78;99908.38;5029016;28;20061;-76
2022/03/31 07:53:33;;;;;;;3.57;2.00;;;;;;;1.46;55.08;99918.78;5011269;28;20114;-75
2022/03/31 07:56:01;;;;;;;3.97;2.00;;;;;;;1.74;55.85;99911.91;5015090;28;20475;-76
2022/03/31 07:58:29;;;;;;;3.07;2.00;;;;;;;2.00;53.84;99907.66;5036833;28;20056;-75
2022/03/31 08:00:56;;;;;;;204.20;22.63;;;;;;;2.02;53.67;99903.34;5007256;28;20087;-75
2022/03/31 08:03:23;;;;;;;5.37;2.40;;;;;;;2.27;54.23;99917.28;4997471;28;20045;-75
2022/03/31 08:05:51;;;;;;;2.97;1.73;;;;;;;1.93;51.37;99905.88;5025356;28;20041;-75
2022/03/31 08:08:19;;;;;;;3.13;1.73;;;;;;;2.03;51.36;99914.63;5021349;28;20048;-76
2022/03/31 08:10:46;;;;;;;3.90;2.20;;;;;;;2.04;51.15;99903.34;5014857;28;20136;-76
2022/03/31 08:13:26;;;;;;;4.43;2.30;;;;;;;1.96;51.81;99905.91;5031808;28;20079;-76
2022/03/31 08:15:58;;;;;;;3.33;2.20;;;;;;;2.02;52.80;99911.16;5024249;28;20513;-74
2022/03/31 08:18:32;;;;;;;2.43;1.90;;;;;;;2.08;52.10;99913.75;5014135;28;20037;-76
2022/03/31 08:20:59;;;;;;;3.55;1.98;;;;;;;2.22;50.86;99900.75;5014216;28;20227;-76
2022/03/31 08:23:26;;;;;;;3.17;1.90;;;;;;;2.42;50.99;99912.03;5049588;28;20052;-74
2022/03/31 08:25:53;;;;;;;4.83;2.13;;;;;;;2.49;51.26;99902.50;5036003;28;20505;-76
2022/03/31 08:28:21;;;;;;;4.30;2.10;;;;;;;2.56;49.96;99903.38;5000875;28;20095;-75
2022/03/31 08:30:47;;;;;;;4.67;2.00;;;;;;;2.53;50.51;99904.25;4997655;28;20044;-75
2022/03/31 08:33:15;;;;;;;5.03;2.27;;;;;;;2.59;49.93;99911.19;5006606;28;20413;-76
2022/03/31 08:35:44;;;;;;;4.07;1.87;;;;;;;2.49;47.91;99921.59;5018215;28;20037;-76
2022/03/31 08:38:10;;;;;;;10.73;2.93;;;;;;;2.36;48.41;99914.66;5031631;28;20047;-76
2022/03/31 08:40:43;;;;;;;3.10;1.73;;;;;;;2.68;48.63;99921.59;4991090;28;20757;-76
2022/03/31 08:43:09;;;;;;;3.27;1.90;;;;;;;2.77;48.56;99921.59;4977924;28;20099;-77
2022/03/31 08:45:38;;;;;;;19.67;2.70;;;;;;;2.75;46.01;99911.16;4999060;28;20098;-75
2022/03/31 08:48:05;;;;;;;4.60;2.20;;;;;;;3.06;45.26;99914.59;4996150;28;20094;-76
2022/03/31 08:50:34;;;;;;;2.97;2.07;;;;;;;3.27;46.65;99913.66;4998848;28;20091;-75
2022/03/31 08:53:02;;;;;;;2.90;1.50;;;;;;;3.06;45.95;99912.00;5030417;28;20048;-75
2022/03/31 08:55:29;;;;;;;3.17;1.87;;;;;;;3.20;46.04;99914.59;5013305;28;20517;-74
2022/03/31 08:57:56;;;;;;;3.33;1.97;;;;;;;3.34;45.55;99917.13;5021262;28;20056;-76
2022/03/31 09:00:23;;;;;;;4.50;1.87;;;;;;;3.19;46.15;99915.44;5029399;28;20045;-75
2022/03/31 09:03:04;;;;;;;16.60;4.90;;;;;;;3.13;45.68;99914.59;4999095;28;20653;-75
2022/03/31 09:05:45;;;;;;;5.27;2.00;;;;;;;3.53;44.52;99929.28;5032047;28;20064;-76
2022/03/31 09:08:14;;;;;;;3.17;2.27;;;;;;;3.36;43.10;99920.59;5014236;28;20048;-75
2022/03/31 09:10:50;;;;;;;5.47;1.97;;;;;;;3.59;43.32;99920.53;5037511;28;20042;-74
2022/03/31 09:13:31;;;;;;;4.73;2.60;;;;;;;3.64;42.81;99924.88;5020504;28;20044;-75
2022/03/31 09:16:03;;;;;;;3.60;1.60;;;;;;;3.19;41.92;99920.66;5027308;28;20037;-75
2022/03/31 09:18:31;;;;;;;3.53;1.70;;;;;;;3.70;41.05;99916.16;5025576;28;20493;-76
2022/03/31 09:21:03;;;;;;;3.03;1.80;;;;;;;3.94;41.43;99896.84;5033620;28;20052;-76
2022/03/31 09:23:41;;;;;;;3.93;1.80;;;;;;;3.85;40.15;99910.81;5021351;28;20172;-76
2022/03/31 09:26:12;;;;;;;3.23;1.83;;;;;;;4.25;41.11;99910.59;5016305;28;20497;-75
2022/03/31 09:28:40;;;;;;;3.43;1.70;;;;;;;4.59;41.13;99910.34;5013074;28;20057;-76
2022/03/31 09:31:10;;;;;;;4.60;2.50;;;;;;;4.79;40.40;99906.69;5031293;28;20041;-76
2022/03/31 09:33:44;;;;;;;3.60;1.80;;;;;;;5.22;42.55;99910.63;5015375;28;20151;-75
2022/03/31 09:36:20;;;;;;;3.40;1.65;;;;;;;5.42;38.48;99913.03;5013415;28;20567;-76
2022/03/31 09:38:53;;;;;;;5.03;1.97;;;;;;;4.93;37.95;99900.44;5030717;28;20045;-76
2022/03/31 09:41:33;;;;;;;3.33;2.00;;;;;;;5.28;38.94;99898.31;4999516;28;20040;-75
2022/03/31 09:44:03;;;;;;;4.47;1.80;;;;;;;4.81;37.55;99911.91;5031978;28;20049;-75
2022/03/31 09:46:35;;;;;;;2.73;1.70;;;;;;;4.80;36.68;99910.16;5001031;28;20094;-76
2022/03/31 09:49:16;;;;;;;2.77;1.97;;;;;;;5.17;37.93;99900.19;5014770;28;20129;-75
2022/03/31 09:51:49;;;;;;;6.40;2.20;;;;;;;4.93;37.06;99903.06;5012233;28;20410;-76
2022/03/31 09:54:17;;;;;;;2.73;1.60;;;;;;;5.06;37.39;99899.44;5014756;28;20211;-75
2022/03/31 09:56:44;;;;;;;5.77;1.87;;;;;;;5.36;36.72;99903.47;5017177;28;20037;-76
2022/03/31 09:59:12;;;;;;;3.17;1.70;;;;;;;5.38;36.57;99917.41;5035280;28;20664;-77
2022/03/31 10:01:51;;;;;;;3.10;1.43;;;;;;;5.32;35.43;99880.84;5020190;28;20049;-75
2022/03/31 10:04:18;;;;;;;3.47;1.63;;;;;;;5.22;34.61;99893.16;5013481;28;20524;-76
2022/03/31 10:06:49;;;;;;;3.73;1.80;;;;;;;5.47;36.14;99893.75;5017939;28;20102;-77
2022/03/31 10:09:17;;;;;;;3.87;1.67;;;;;;;5.37;35.10;99885.09;5030784;28;20044;-77
2022/03/31 10:11:46;;;;;;;2.70;1.70;;;;;;;5.73;34.94;99888.19;5048964;28;20529;-78
2022/03/31 10:14:25;;;;;;;2.63;1.70;;;;;;;5.96;33.04;99871.28;5031210;28;20048;-77
2022/03/31 10:16:59;;;;;;;2.80;1.90;;;;;;;6.14;33.47;99874.53;5049653;28;20080;-78
2022/03/31 10:19:27;;;;;;;3.45;1.77;;;;;;;5.65;32.68;99872.56;5031380;28;20051;-78
2022/03/31 10:25:13;;;;;;;3.30;1.73;;;;;;;6.19;33.68;99863.94;5026648;28;20049;-78
2022/03/31 10:27:46;;;;;;;3.00;1.90;;;;;;;6.13;33.06;99864.03;5038298;28;20412;-77
2022/03/31 10:30:25;;;;;;;4.40;2.77;;;;;;;6.37;33.88;99860.16;5044055;28;20556;-77
2022/03/31 10:32:54;;;;;;;3.03;2.33;;;;;;;6.17;33.28;99850.88;5021908;28;20151;-77
2022/03/31 10:35:32;;;;;;;4.10;2.03;;;;;;;6.47;34.52;99853.88;5033416;28;20040;-77
2022/03/31 10:38:11;;;;;;;3.20;2.37;;;;;;;6.37;34.55;99841.81;5015069;28;20056;-77
2022/03/31 10:40:39;;;;;;;14.67;9.80;;;;;;;6.49;34.24;99850.34;5024850;28;20123;-77
2022/03/31 10:43:22;;;;;;;3.37;1.70;;;;;;;6.72;32.07;99846.44;5034316;28;20035;-78
2022/03/31 10:45:49;;;;;;;3.13;1.57;;;;;;;6.71;32.03;99839.47;5034832;28;20033;-77
2022/03/31 10:48:20;;;;;;;4.10;2.20;;;;;;;6.70;31.25;99846.47;5050673;28;20057;-78
2022/03/31 10:51:02;;;;;;;3.53;2.10;;;;;;;6.84;32.16;99834.88;5022380;28;20044;-77
2022/03/31 10:53:30;;;;;;;3.17;2.10;;;;;;;7.23;31.77;99839.38;5032843;28;20103;-77
2022/03/31 10:55:58;;;;;;;3.17;1.90;;;;;;;6.94;30.35;99839.06;5002317;28;20048;-76
2022/03/31 10:58:31;;;;;;;13.05;2.67;;;;;;;6.97;31.61;99849.47;5008496;28;20068;-78
2022/03/31 11:01:01;;;;;;;3.53;1.77;;;;;;;6.69;30.01;99836.00;5034425;28;20045;-77
2022/03/31 11:03:28;;;;;;;3.40;1.80;;;;;;;6.89;31.26;99846.13;5006620;28;20038;-77
2022/03/31 11:05:59;;;;;;;2.50;2.00;;;;;;;6.90;30.93;99829.50;5047750;28;20056;-77
2022/03/31 11:08:26;;;;;;;2.53;1.67;;;;;;;6.91;31.74;99836.50;5016344;28;20083;-77
2022/03/31 11:10:53;;;;;;;5.13;2.60;;;;;;;6.80;30.69;99834.03;5033592;28;20121;-77
2022/03/31 11:13:35;;;;;;;2.87;1.57;;;;;;;6.08;30.48;99840.53;5000199;28;20513;-77
2022/03/31 11:16:04;;;;;;;813.43;119.90;;;;;;;6.47;31.34;99827.63;5020729;28;20038;-77
2022/03/31 11:18:31;;;;;;;12.17;2.37;;;;;;;7.03;30.83;99828.38;5013258;28;20056;-77
2022/03/31 11:20:59;;;;;;;5.23;2.20;;;;;;;7.30;30.89;99827.81;5030499;28;20067;-77
2022/03/31 11:23:26;;;;;;;3.13;1.93;;;;;;;7.41;30.45;99824.97;5016169;28;20040;-77
2022/03/31 11:25:53;;;;;;;3.87;1.77;;;;;;;7.71;29.43;99815.56;5000292;28;20047;-77
2022/03/31 11:28:20;;;;;;;3.63;2.37;;;;;;;7.94;29.02;99803.66;5032840;28;20044;-77
2022/03/31 11:30:48;;;;;;;4.47;2.17;;;;;;;7.19;28.24;99814.03;5036135;28;20045;-77
2022/03/31 11:33:15;;;;;;;8.23;1.90;;;;;;;6.97;29.71;99812.72;5048651;28;20091;-77
2022/03/31 11:35:42;;;;;;;2.60;1.73;;;;;;;7.31;29.94;99810.28;5035105;28;20037;-77
2022/03/31 11:38:12;;;;;;;6.83;2.57;;;;;;;7.12;29.23;99806.31;5016534;28;20045;-78
2022/03/31 11:40:46;;;;;;;2.33;1.50;;;;;;;7.70;29.74;99799.81;5015160;28;20037;-77
2022/03/31 11:43:15;;;;;;;3.23;2.07;;;;;;;7.60;29.66;99796.53;5015957;28;20496;-77
2022/03/31 11:45:54;;;;;;;3.10;1.90;;;;;;;7.55;29.51;99798.38;5032906;28;20094;-77
2022/03/31 11:48:32;;;;;;;2.03;1.30;;;;;;;7.40;29.17;99796.09;5031870;28;20099;-76